Time;durP1;ratioP1;P1;durP2;ratioP2;P2;SDS_P1;SDS_P2;PMS_P1;PMS_P2;Temp;Humidity;BMP_temperature;BMP_pressure;BME280_temperature;BME280_humidity;BME280_pressure;Samples;Min_cycle;Max_cycle;Signal;HPM_P1;HPM_P2
2021/08/15 00:02:09;;;;;;;20.48;15.77;;;18.90;99.90;;;;;;4967297;28;20154;-81
2021/08/15 00:04:38;;;;;;;21.23;16.30;;;18.90;99.90;;;;;;4981720;28;20050;-82
2021/08/15 00:07:05;;;;;;;24.25;16.42;;;18.90;99.90;;;;;;4966329;28;20082;-81
2021/08/15 00:09:32;;;;;;;21.83;16.73;;;18.80;99.90;;;;;;4977819;28;20146;-80
2021/08/15 00:11:59;;;;;;;22.33;15.98;;;18.80;99.90;;;;;;4968995;28;20097;-81
2021/08/15 00:14:26;;;;;;;25.75;16.05;;;18.70;99.90;;;;;;4980106;28;20142;-80
2021/08/15 00:17:08;;;;;;;;;;;;;;;;;;;;;
2021/08/15 00:20:05;;;;;;;25.65;16.70;;;18.70;99.90;;;;;;4980504;28;20130;-80
2021/08/15 00:22:48;;;;;;;21.95;16.90;;;18.60;99.90;;;;;;4979010;28;20134;-80
2021/08/15 00:25:16;;;;;;;24.45;17.23;;;18.60;99.90;;;;;;4972669;28;20109;-79
2021/08/15 00:31:14;;;;;;;25.70;17.27;;;18.50;99.90;;;;;;4972752;28;20055;-80
2021/08/15 00:34:08;;;;;;;22.50;16.33;;;18.50;99.90;;;;;;4960411;28;20062;-82
2021/08/15 00:36:41;;;;;;;25.23;16.40;;;18.40;99.90;;;;;;4973077;28;20076;-80
2021/08/15 00:39:16;;;;;;;27.60;17.10;;;18.50;99.90;;;;;;4979761;28;20054;-81
2021/08/15 00:41:43;;;;;;;25.02;16.35;;;18.40;99.90;;;;;;4970865;28;20103;-81
2021/08/15 00:44:21;;;;;;;26.17;17.25;;;18.40;99.90;;;;;;4986808;28;20534;-82
2021/08/15 00:46:50;;;;;;;22.63;16.05;;;18.30;99.90;;;;;;4977279;28;20083;-81
2021/08/15 00:49:23;;;;;;;20.50;15.65;;;18.20;99.90;;;;;;4981958;28;20042;-82
2021/08/15 00:52:08;;;;;;;25.10;15.65;;;18.10;99.90;;;;;;4990318;28;20053;-82
2021/08/15 00:54:44;;;;;;;23.20;15.55;;;18.10;99.90;;;;;;4984765;28;20058;-81
2021/08/15 00:57:13;;;;;;;23.52;15.20;;;18.00;99.90;;;;;;4986613;28;20078;-80
2021/08/15 00:59:43;;;;;;;28.42;15.82;;;18.00;99.90;;;;;;4982092;28;20051;-80
2021/08/15 01:02:20;;;;;;;25.92;15.90;;;18.00;99.90;;;;;;4982888;28;20474;-77
2021/08/15 01:05:11;;;;;;;19.95;14.80;;;17.90;99.90;;;;;;4983089;28;20061;-81
2021/08/15 01:07:51;;;;;;;19.73;14.70;;;17.80;99.90;;;;;;4988254;28;20059;-81
2021/08/15 01:10:22;;;;;;;24.80;15.20;;;17.80;99.90;;;;;;4987285;28;20081;-82
2021/08/15 01:15:36;;;;;;;22.27;14.63;;;17.70;99.90;;;;;;5002247;28;20050;-80
2021/08/15 01:18:16;;;;;;;23.38;14.48;;;17.70;99.90;;;;;;5004891;28;20047;-83
2021/08/15 01:20:43;;;;;;;18.33;13.52;;;17.60;99.90;;;;;;5003607;28;20444;-82
2021/08/15 01:23:11;;;;;;;23.40;14.27;;;17.60;99.90;;;;;;4987885;28;20089;-81
2021/08/15 01:25:38;;;;;;;23.38;12.95;;;17.60;99.90;;;;;;4997362;28;20054;-78
2021/08/15 01:28:06;;;;;;;22.45;13.13;;;17.60;99.90;;;;;;4989449;28;20614;-81
2021/08/15 01:30:34;;;;;;;19.88;13.65;;;17.60;99.90;;;;;;4993644;28;20082;-80
2021/08/15 01:33:01;;;;;;;21.90;14.15;;;17.50;99.90;;;;;;4999063;28;20074;-82
2021/08/15 01:35:28;;;;;;;23.98;12.80;;;17.50;99.90;;;;;;4990919;28;20078;-82
2021/08/15 01:37:55;;;;;;;23.13;13.55;;;17.50;99.90;;;;;;5002890;28;20078;-81
2021/08/15 01:40:22;;;;;;;19.58;12.93;;;17.50;99.90;;;;;;4995209;28;20058;-81
2021/08/15 01:42:49;;;;;;;20.52;12.50;;;17.50;99.90;;;;;;4994549;28;20094;-81
2021/08/15 01:45:16;;;;;;;23.52;13.23;;;17.50;99.90;;;;;;5003332;28;20174;-80
2021/08/15 01:47:44;;;;;;;21.92;13.18;;;17.50;99.90;;;;;;4991864;28;20058;-80
2021/08/15 01:50:11;;;;;;;18.95;12.15;;;17.50;99.90;;;;;;4999559;28;20078;-79
2021/08/15 01:52:39;;;;;;;20.60;12.20;;;17.50;99.90;;;;;;4995728;28;20114;-80
2021/08/15 01:55:07;;;;;;;23.13;13.13;;;17.50;99.90;;;;;;4990884;28;20126;-80
2021/08/15 01:57:34;;;;;;;22.52;13.45;;;17.50;99.90;;;;;;5000626;28;20129;-81
2021/08/15 02:00:01;;;;;;;20.50;13.20;;;17.50;99.90;;;;;;4990496;28;20102;-81
2021/08/15 02:02:28;;;;;;;21.90;13.02;;;17.40;99.90;;;;;;4995685;28;20125;-81
2021/08/15 02:04:56;;;;;;;20.15;12.98;;;17.30;99.90;;;;;;4996789;28;20066;-79
2021/08/15 02:07:23;;;;;;;21.73;13.90;;;17.30;99.90;;;;;;4988039;28;20055;-79
2021/08/15 02:09:50;;;;;;;19.98;13.02;;;17.30;99.90;;;;;;5000916;28;20070;-80
2021/08/15 02:12:17;;;;;;;20.15;12.93;;;17.20;99.90;;;;;;4985440;28;20061;-79
2021/08/15 02:14:44;;;;;;;20.77;12.82;;;17.20;99.90;;;;;;4989379;28;20104;-81
2021/08/15 02:17:10;;;;;;;22.95;13.05;;;17.20;99.90;;;;;;4987810;28;20070;-81
2021/08/15 02:19:37;;;;;;;19.05;12.60;;;17.10;99.90;;;;;;4986845;28;20134;-80
2021/08/15 02:22:05;;;;;;;24.65;12.75;;;17.10;99.90;;;;;;4988491;28;20066;-81
2021/08/15 02:24:32;;;;;;;19.98;12.77;;;17.10;99.90;;;;;;4987965;28;20235;-81
2021/08/15 02:26:59;;;;;;;21.48;12.88;;;17.10;99.90;;;;;;4988425;28;20054;-82
2021/08/15 02:29:26;;;;;;;24.50;13.18;;;17.00;99.90;;;;;;4989147;28;20082;-80
2021/08/15 02:31:53;;;;;;;21.05;13.38;;;17.00;99.90;;;;;;4988733;28;20053;-81
2021/08/15 02:34:22;;;;;;;22.63;12.77;;;16.90;99.90;;;;;;4986713;28;20089;-80
2021/08/15 02:36:49;;;;;;;22.20;13.20;;;16.90;99.90;;;;;;4986961;28;20050;-80
2021/08/15 02:39:17;;;;;;;22.00;13.45;;;16.80;99.90;;;;;;4987098;28;20066;-80
2021/08/15 02:41:44;;;;;;;24.27;13.02;;;16.80;99.90;;;;;;4987368;28;20150;-79
2021/08/15 02:44:11;;;;;;;19.80;12.13;;;16.70;99.90;;;;;;4986108;28;20130;-80
2021/08/15 02:46:37;;;;;;;20.30;12.32;;;16.70;99.90;;;;;;4984218;28;20081;-81
2021/08/15 02:49:04;;;;;;;21.60;11.57;;;16.80;99.90;;;;;;4984118;28;20126;-81
2021/08/15 02:51:31;;;;;;;22.70;13.00;;;16.70;99.90;;;;;;4983952;28;20086;-80
2021/08/15 02:53:59;;;;;;;19.23;12.77;;;16.70;99.90;;;;;;4984021;28;20115;-81
2021/08/15 02:56:27;;;;;;;21.45;12.23;;;16.70;99.90;;;;;;4986295;28;20062;-80
2021/08/15 02:58:54;;;;;;;22.73;12.23;;;16.70;99.90;;;;;;4985503;28;20457;-79
2021/08/15 03:01:21;;;;;;;21.50;12.05;;;16.60;99.90;;;;;;4985800;28;20050;-77
2021/08/15 03:03:48;;;;;;;21.10;12.27;;;16.50;99.90;;;;;;4986652;28;20081;-81
2021/08/15 03:06:15;;;;;;;21.80;12.30;;;16.50;99.90;;;;;;4984855;28;20050;-79
2021/08/15 03:08:41;;;;;;;22.55;11.43;;;16.40;99.90;;;;;;4984273;28;20168;-77
2021/08/15 03:11:08;;;;;;;19.35;10.95;;;16.40;99.90;;;;;;4985351;28;20097;-79
2021/08/15 03:13:36;;;;;;;18.13;10.70;;;16.40;99.90;;;;;;4982981;28;20266;-78
2021/08/15 03:16:04;;;;;;;22.83;10.88;;;16.40;99.90;;;;;;4983969;28;20051;-79
2021/08/15 03:18:31;;;;;;;20.75;10.95;;;16.40;99.90;;;;;;4983354;28;20085;-78
2021/08/15 03:20:58;;;;;;;18.65;10.45;;;16.40;99.90;;;;;;4983159;28;20050;-79
2021/08/15 03:23:25;;;;;;;16.67;10.73;;;16.40;99.90;;;;;;4984306;28;20098;-78
2021/08/15 03:25:52;;;;;;;18.70;10.80;;;16.40;99.90;;;;;;4984517;28;20050;-79
2021/08/15 03:28:19;;;;;;;23.63;12.38;;;16.40;99.90;;;;;;4984039;28;20133;-79
2021/08/15 03:30:47;;;;;;;21.10;11.23;;;16.30;99.90;;;;;;4984147;28;20154;-80
2021/08/15 03:33:14;;;;;;;19.58;12.05;;;16.20;99.90;;;;;;4984273;28;20110;-79
2021/08/15 03:35:41;;;;;;;25.27;13.02;;;16.10;99.90;;;;;;4984463;28;20129;-79
2021/08/15 03:38:07;;;;;;;17.63;11.40;;;16.10;99.90;;;;;;4983699;28;20082;-79
2021/08/15 03:40:34;;;;;;;18.63;11.73;;;16.00;99.90;;;;;;4984035;28;20107;-80
2021/08/15 03:43:01;;;;;;;20.92;12.32;;;16.00;99.90;;;;;;4982584;28;20082;-78
2021/08/15 03:45:28;;;;;;;21.77;12.25;;;16.10;99.90;;;;;;4983381;28;20086;-80
2021/08/15 03:47:56;;;;;;;21.33;12.68;;;16.10;99.90;;;;;;4983217;28;20054;-79
2021/08/15 03:50:23;;;;;;;20.20;12.63;;;16.00;99.90;;;;;;4983990;28;20085;-79
2021/08/15 03:52:50;;;;;;;26.95;13.45;;;16.00;99.90;;;;;;4984852;28;20078;-77
2021/08/15 03:55:17;;;;;;;25.27;13.05;;;16.00;99.90;;;;;;4984067;28;20047;-78
2021/08/15 03:57:44;;;;;;;22.65;12.65;;;15.90;99.90;;;;;;4983665;28;20146;-79
2021/08/15 04:00:12;;;;;;;28.45;14.18;;;15.90;99.90;;;;;;4982579;28;20130;-79
2021/08/15 04:02:39;;;;;;;21.17;14.77;;;16.00;99.90;;;;;;4981014;28;20089;-78
2021/08/15 04:05:08;;;;;;;26.75;14.57;;;15.90;99.90;;;;;;4979474;28;20137;-79
2021/08/15 04:07:35;;;;;;;28.02;16.10;;;15.80;99.90;;;;;;4979370;28;20089;-78
2021/08/15 04:10:03;;;;;;;25.48;15.27;;;15.80;99.90;;;;;;4978036;28;20480;-80
2021/08/15 04:12:29;;;;;;;25.35;16.05;;;15.80;99.90;;;;;;4976721;28;20125;-79
2021/08/15 04:14:56;;;;;;;26.13;16.10;;;15.80;99.90;;;;;;4977146;28;20575;-79
2021/08/15 04:17:23;;;;;;;24.95;16.38;;;15.70;99.90;;;;;;4984258;28;20054;-79
2021/08/15 04:19:50;;;;;;;25.77;16.80;;;15.80;99.90;;;;;;4985069;28;20203;-80
2021/08/15 04:22:21;;;;;;;32.60;16.65;;;15.80;99.90;;;;;;4985403;28;20093;-82
2021/08/15 04:24:47;;;;;;;20.65;15.45;;;15.80;99.90;;;;;;4983507;28;20073;-78
2021/08/15 04:27:14;;;;;;;22.58;15.43;;;15.90;99.90;;;;;;4986362;28;20114;-80
2021/08/15 04:29:41;;;;;;;24.45;15.60;;;15.90;99.90;;;;;;4985849;28;20125;-80
2021/08/15 04:32:08;;;;;;;28.17;17.02;;;15.90;99.90;;;;;;4985306;28;20114;-78
2021/08/15 04:34:36;;;;;;;23.08;16.48;;;15.90;99.90;;;;;;4985557;28;20107;-77
2021/08/15 04:37:04;;;;;;;21.50;15.60;;;15.90;99.90;;;;;;4985916;28;20142;-79
2021/08/15 04:39:32;;;;;;;26.55;15.45;;;16.00;99.90;;;;;;4987449;28;20503;-79
2021/08/15 04:41:59;;;;;;;22.45;15.85;;;16.00;99.90;;;;;;4985900;28;20078;-79
2021/08/15 04:44:26;;;;;;;25.75;16.25;;;16.10;99.90;;;;;;4986611;28;20125;-78
2021/08/15 04:46:53;;;;;;;27.15;16.38;;;16.10;99.90;;;;;;4986674;28;20082;-79
2021/08/15 04:49:20;;;;;;;22.58;15.63;;;16.10;99.90;;;;;;4986217;28;20497;-79
2021/08/15 04:51:47;;;;;;;25.98;15.95;;;16.10;99.90;;;;;;4986133;28;20134;-78
2021/08/15 04:54:13;;;;;;;26.88;15.02;;;16.10;99.90;;;;;;4985068;28;20460;-79
2021/08/15 04:56:42;;;;;;;22.75;15.38;;;16.10;99.90;;;;;;4985974;28;20097;-79
2021/08/15 04:59:09;;;;;;;20.80;14.52;;;16.00;99.90;;;;;;4985279;28;20054;-79
2021/08/15 05:01:36;;;;;;;23.88;14.65;;;16.00;99.90;;;;;;4985377;28;20106;-79
2021/08/15 05:04:03;;;;;;;21.08;13.57;;;16.00;99.90;;;;;;4985365;28;20051;-80
2021/08/15 05:06:29;;;;;;;22.58;13.50;;;16.10;99.90;;;;;;4984577;28;20111;-80
2021/08/15 05:08:56;;;;;;;23.73;13.45;;;16.30;99.90;;;;;;4986416;28;20066;-80
2021/08/15 05:11:23;;;;;;;20.20;13.57;;;16.40;99.90;;;;;;4987878;28;20423;-79
2021/08/15 05:13:51;;;;;;;18.60;12.65;;;16.50;99.90;;;;;;4984610;28;20058;-79
2021/08/15 05:16:18;;;;;;;23.58;13.10;;;16.60;99.90;;;;;;4985088;28;20082;-79
2021/08/15 05:18:45;;;;;;;21.05;12.95;;;16.70;99.90;;;;;;4987465;28;20051;-79
2021/08/15 05:21:12;;;;;;;18.58;12.18;;;16.70;99.90;;;;;;4986190;28;20491;-79
2021/08/15 05:23:39;;;;;;;21.77;13.27;;;16.70;99.90;;;;;;4985288;28;20086;-80
2021/08/15 05:26:06;;;;;;;19.73;13.38;;;16.80;99.90;;;;;;4984887;28;20055;-81
2021/08/15 05:28:33;;;;;;;18.80;12.00;;;16.90;99.90;;;;;;4984525;28;20489;-80
2021/08/15 05:31:01;;;;;;;25.30;13.07;;;17.00;99.90;;;;;;4984568;28;20138;-80
2021/08/15 05:33:28;;;;;;;18.05;12.48;;;17.10;99.90;;;;;;4985625;28;20086;-80
2021/08/15 05:35:55;;;;;;;18.33;12.02;;;17.20;99.90;;;;;;4987439;28;20094;-81
2021/08/15 05:38:22;;;;;;;20.48;11.93;;;17.30;99.90;;;;;;4986163;28;20496;-82
2021/08/15 05:40:48;;;;;;;20.75;12.15;;;17.60;99.90;;;;;;4986670;28;20110;-82
2021/08/15 05:43:15;;;;;;;15.68;11.02;;;18.00;99.90;;;;;;4986778;28;20672;-81
2021/08/15 05:45:42;;;;;;;18.05;11.07;;;18.40;99.90;;;;;;4985850;28;20106;-81
2021/08/15 05:48:10;;;;;;;17.27;11.32;;;18.90;99.90;;;;;;4986733;28;20113;-82
2021/08/15 05:50:37;;;;;;;17.02;10.50;;;19.30;99.90;;;;;;4986787;28;20129;-82
2021/08/15 05:53:04;;;;;;;15.88;11.25;;;19.70;99.90;;;;;;4983998;28;20114;-81
2021/08/15 05:55:31;;;;;;;16.25;10.30;;;19.80;99.90;;;;;;4984744;28;20050;-82
2021/08/15 05:57:58;;;;;;;17.35;9.77;;;19.80;99.90;;;;;;4985140;28;20082;-82
2021/08/15 06:00:25;;;;;;;17.50;9.77;;;19.50;99.90;;;;;;4986809;28;20135;-81
2021/08/15 06:02:52;;;;;;;15.38;10.38;;;19.40;99.90;;;;;;4982065;28;20105;-79
2021/08/15 06:05:20;;;;;;;15.00;9.52;;;19.40;99.90;;;;;;4983637;28;20078;-83
2021/08/15 06:07:47;;;;;;;15.07;9.18;;;19.60;99.90;;;;;;4986061;28;20078;-80
2021/08/15 06:10:14;;;;;;;14.85;9.00;;;20.00;99.90;;;;;;4985102;28;20082;-81
2021/08/15 06:12:41;;;;;;;19.20;9.63;;;20.60;99.90;;;;;;4983793;28;20081;-82
2021/08/15 06:15:12;;;;;;;17.80;9.02;;;21.00;99.90;;;;;;4983518;28;20106;-82
2021/08/15 06:17:39;;;;;;;14.88;8.70;;;21.40;99.90;;;;;;4984750;28;20074;-81
2021/08/15 06:20:08;;;;;;;14.43;8.30;;;21.70;99.90;;;;;;4983019;28;20082;-81
2021/08/15 06:22:39;;;;;;;13.20;8.43;;;22.00;99.90;;;;;;4983857;28;20050;-82
2021/08/15 06:25:07;;;;;;;13.25;8.70;;;22.20;99.90;;;;;;4983460;28;20051;-83
2021/08/15 06:27:35;;;;;;;14.98;8.85;;;22.40;99.90;;;;;;4984877;28;20051;-83
2021/08/15 06:30:02;;;;;;;14.00;8.65;;;22.60;99.90;;;;;;4983814;28;20074;-83
2021/08/15 06:32:28;;;;;;;14.43;8.45;;;22.70;99.90;;;;;;4989717;28;20081;-83
2021/08/15 06:34:55;;;;;;;15.25;8.65;;;22.70;99.90;;;;;;4989684;28;20058;-82
2021/08/15 06:37:22;;;;;;;11.73;7.97;;;22.80;99.90;;;;;;4990129;28;20078;-82
2021/08/15 06:39:50;;;;;;;12.70;7.93;;;22.90;99.90;;;;;;4989532;28;20051;-81
2021/08/15 06:42:17;;;;;;;14.13;8.20;;;23.20;99.90;;;;;;4989370;28;20047;-81
2021/08/15 06:44:44;;;;;;;14.35;8.70;;;23.50;99.90;;;;;;4987584;28;20062;-82
2021/08/15 06:47:11;;;;;;;14.10;8.40;;;23.60;99.90;;;;;;4985869;28;20110;-81
2021/08/15 06:49:38;;;;;;;14.85;8.38;;;23.70;99.90;;;;;;4985230;28;20046;-79
2021/08/15 06:52:05;;;;;;;13.95;7.88;;;23.90;99.90;;;;;;4984181;28;20219;-81
2021/08/15 06:54:32;;;;;;;12.70;7.55;;;24.20;99.90;;;;;;4987268;28;20094;-80
2021/08/15 06:57:00;;;;;;;10.27;6.90;;;24.80;99.90;;;;;;4990194;28;20085;-80
2021/08/15 06:59:27;;;;;;;11.15;7.72;;;25.40;99.90;;;;;;4989858;28;20054;-80
2021/08/15 07:01:53;;;;;;;14.48;7.55;;;25.80;99.90;;;;;;4991769;28;20269;-79
2021/08/15 07:04:20;;;;;;;10.13;7.22;;;25.80;99.90;;;;;;4991385;28;20047;-81
2021/08/15 07:06:47;;;;;;;10.52;6.45;;;25.60;99.90;;;;;;4991798;28;20061;-80
2021/08/15 07:09:14;;;;;;;12.40;7.20;;;25.00;99.90;;;;;;4988076;28;20053;-80
2021/08/15 07:11:41;;;;;;;11.98;7.30;;;24.70;99.90;;;;;;4989491;28;20047;-81
2021/08/15 07:14:13;;;;;;;10.80;7.20;;;24.60;99.90;;;;;;5030843;23;20552;-82
2021/08/15 07:17:15;;;;;;;10.50;6.50;;;24.50;99.90;;;;;;5036054;28;20056;-82
2021/08/15 07:19:47;;;;;;;11.90;7.07;;;24.40;99.90;;;;;;5023404;28;20053;-82
2021/08/15 07:26:56;;;;;;;;;;;;;;;;;;;;;
2021/08/15 07:30:11;;;;;;;14.77;6.78;;;25.00;99.90;;;;;;4802879;29;20062;-81
2021/08/15 07:33:36;;;;;;;11.63;7.22;;;25.80;99.90;;;;;;4906671;29;20053;-81
2021/08/15 07:40:07;;;;;;;14.23;7.03;;;26.60;99.90;;;;;;4934569;29;20047;-80
2021/08/15 07:42:37;;;;;;;12.20;6.82;;;27.00;99.90;;;;;;4935224;28;20059;-82
2021/08/15 07:45:07;;;;;;;11.35;7.00;;;27.30;99.90;;;;;;4957120;28;20559;-82
2021/08/15 07:47:34;;;;;;;12.13;7.40;;;27.60;99.90;;;;;;4988758;28;20057;-83
2021/08/15 07:50:01;;;;;;;13.80;7.32;;;27.80;99.90;;;;;;5022544;28;20065;-84
2021/08/15 07:52:27;;;;;;;12.50;7.55;;;27.60;99.90;;;;;;5024798;28;20130;-86
2021/08/15 07:54:54;;;;;;;12.15;7.47;;;27.10;99.90;;;;;;5023200;28;20109;-84
2021/08/15 07:57:22;;;;;;;10.65;6.93;;;26.70;99.90;;;;;;5023651;28;20561;-84
2021/08/15 07:59:52;;;;;;;12.40;7.28;;;26.40;99.90;;;;;;5027009;28;20046;-86
2021/08/15 08:02:20;;;;;;;11.52;7.53;;;26.10;99.90;;;;;;5033544;28;20045;-85
2021/08/15 08:04:48;;;;;;;15.02;7.30;;;26.40;99.90;;;;;;5035857;28;20090;-82
2021/08/15 08:07:18;;;;;;;9.93;7.07;;;26.30;99.90;;;;;;5031629;28;20074;-83
2021/08/15 08:09:46;;;;;;;10.20;6.45;;;26.10;99.90;;;;;;5026042;28;20391;-83
2021/08/15 08:12:13;;;;;;;10.40;6.75;;;26.30;99.90;;;;;;5021416;28;20133;-82
2021/08/15 08:14:40;;;;;;;12.38;6.35;;;26.80;99.90;;;;;;5022096;28;20136;-83
2021/08/15 08:17:07;;;;;;;11.15;6.15;;;27.30;99.90;;;;;;5023066;28;20129;-83
2021/08/15 08:19:36;;;;;;;9.80;6.40;;;27.30;99.90;;;;;;5021183;28;20077;-82
2021/08/15 08:22:03;;;;;;;9.55;6.30;;;27.60;99.90;;;;;;5022092;28;20081;-82
2021/08/15 08:24:30;;;;;;;8.48;6.20;;;27.70;99.90;;;;;;5021600;28;20481;-82
2021/08/15 08:26:57;;;;;;;9.80;6.38;;;28.20;99.90;;;;;;5022563;28;20100;-81
2021/08/15 08:29:24;;;;;;;9.82;6.10;;;28.80;99.90;;;;;;5022167;28;20061;-81
2021/08/15 08:31:51;;;;;;;8.43;5.57;;;29.00;99.90;;;;;;5021221;28;20128;-82
2021/08/15 08:34:18;;;;;;;10.65;6.95;;;28.90;99.90;;;;;;5023968;28;20137;-83
2021/08/15 08:36:46;;;;;;;10.25;5.85;;;28.90;99.90;;;;;;5021496;28;20053;-80
2021/08/15 08:39:13;;;;;;;8.25;5.85;;;28.80;99.90;;;;;;5024219;28;20121;-82
2021/08/15 08:41:40;;;;;;;8.60;5.85;;;28.40;99.90;;;;;;5023073;28;20102;-83
2021/08/15 08:44:08;;;;;;;10.35;6.00;;;28.10;99.90;;;;;;5021762;28;20088;-82
2021/08/15 08:46:36;;;;;;;10.38;6.00;;;27.80;99.90;;;;;;5022638;28;20074;-82
2021/08/15 08:49:03;;;;;;;9.30;5.88;;;27.50;99.90;;;;;;5020363;28;20117;-81
2021/08/15 08:51:31;;;;;;;12.95;7.13;;;27.40;99.90;;;;;;5021305;28;20052;-80
2021/08/15 08:54:02;;;;;;;10.43;5.38;;;27.50;99.90;;;;;;5023062;28;20054;-82
2021/08/15 08:56:29;;;;;;;9.73;6.22;;;27.70;99.90;;;;;;5020802;28;20138;-82
2021/08/15 08:58:56;;;;;;;9.13;5.68;;;28.10;99.90;;;;;;5021755;28;20137;-81
2021/08/15 09:01:24;;;;;;;10.80;6.10;;;28.30;99.90;;;;;;5022821;28;20050;-81
2021/08/15 09:03:51;;;;;;;8.15;5.40;;;28.70;99.90;;;;;;5022267;28;20069;-82
2021/08/15 09:06:20;;;;;;;10.02;5.82;;;29.10;99.90;;;;;;5023196;28;20064;-82
2021/08/15 09:08:46;;;;;;;8.77;4.95;;;29.40;99.90;;;;;;5027548;28;20101;-82
2021/08/15 09:11:16;;;;;;;10.07;5.95;;;29.60;99.90;;;;;;5029402;28;20409;-82
2021/08/15 09:13:44;;;;;;;8.63;5.30;;;29.30;99.90;;;;;;5025326;28;20463;-82
2021/08/15 09:16:11;;;;;;;10.48;5.43;;;29.00;99.90;;;;;;5020797;28;20506;-82
2021/08/15 09:18:38;;;;;;;10.85;6.00;;;28.90;99.90;;;;;;5021466;28;20133;-82
2021/08/15 09:21:05;;;;;;;11.40;5.53;;;28.50;99.90;;;;;;5021994;28;20050;-82
2021/08/15 09:23:35;;;;;;;10.32;6.15;;;28.20;99.90;;;;;;5020257;28;20073;-80
2021/08/15 09:26:21;;;;;;;12.23;6.03;;;27.80;99.90;;;;;;5020277;28;20057;-81
2021/08/15 09:28:50;;;;;;;9.38;5.18;;;27.50;99.90;;;;;;5020742;28;20302;-82
2021/08/15 09:31:24;;;;;;;12.30;5.53;;;27.40;99.90;;;;;;5021494;28;20096;-82
2021/08/15 09:33:52;;;;;;;11.57;5.40;;;27.40;99.90;;;;;;5021671;28;20409;-82
2021/08/15 09:36:30;;;;;;;8.40;5.00;;;27.50;99.90;;;;;;5021760;28;20133;-81
2021/08/15 09:38:59;;;;;;;7.97;5.15;;;27.40;99.90;;;;;;5020392;28;20108;-82
2021/08/15 09:41:31;;;;;;;8.85;5.25;;;27.40;99.90;;;;;;5020721;28;20101;-80
2021/08/15 09:44:18;;;;;;;9.02;5.22;;;27.50;99.90;;;;;;5022117;28;20084;-81
2021/08/15 09:46:58;;;;;;;7.63;4.70;;;27.60;99.90;;;;;;5019767;28;20056;-81
2021/08/15 09:49:33;;;;;;;9.38;4.38;;;27.80;99.90;;;;;;5020463;28;20090;-81
2021/08/15 09:52:00;;;;;;;7.82;4.90;;;28.00;99.90;;;;;;5020145;28;20170;-81
2021/08/15 09:54:27;;;;;;;26.02;5.50;;;28.20;99.90;;;;;;5020239;28;20133;-81
2021/08/15 09:56:56;;;;;;;9.30;4.75;;;28.50;99.90;;;;;;5020156;28;20149;-81
2021/08/15 09:59:25;;;;;;;6.60;4.38;;;28.50;99.90;;;;;;5020242;28;20064;-79
2021/08/15 10:01:53;;;;;;;6.53;4.13;;;28.50;99.90;;;;;;5018201;28;20046;-80
2021/08/15 10:04:21;;;;;;;8.00;4.53;;;28.60;99.90;;;;;;5018441;28;20054;-80
2021/08/15 10:06:50;;;;;;;6.53;4.30;;;28.40;99.90;;;;;;5019525;28;20132;-80
2021/08/15 10:09:19;;;;;;;6.80;4.20;;;28.30;99.90;;;;;;5020057;28;20477;-80
2021/08/15 10:11:46;;;;;;;8.20;4.57;;;28.40;99.90;;;;;;5016854;28;20077;-79
2021/08/15 10:14:15;;;;;;;9.48;4.78;;;28.50;99.90;;;;;;5018842;28;20057;-80
2021/08/15 10:16:49;;;;;;;7.75;5.32;;;28.60;99.90;;;;;;5018043;28;20565;-79
2021/08/15 10:19:20;;;;;;;10.18;4.93;;;28.60;99.90;;;;;;5016778;28;20106;-79
2021/08/15 10:21:48;;;;;;;8.70;4.80;;;28.40;99.90;;;;;;5005556;28;20050;-79
2021/08/15 10:24:17;;;;;;;10.40;4.57;;;28.20;99.90;;;;;;5007712;28;20084;-79
2021/08/15 10:26:47;;;;;;;7.25;5.10;;;28.10;99.90;;;;;;4995229;28;20109;-79
2021/08/15 10:29:41;;;;;;;8.75;4.88;;;28.10;99.90;;;;;;4994562;28;20073;-80
2021/08/15 10:32:10;;;;;;;10.52;5.10;;;28.10;99.90;;;;;;4995406;28;20074;-79
2021/08/15 10:35:17;;;;;;;9.60;4.53;;;28.00;99.90;;;;;;4995206;28;20154;-79
2021/08/15 10:37:47;;;;;;;8.90;4.88;;;28.10;99.90;;;;;;5010523;28;20072;-81
2021/08/15 10:40:59;;;;;;;10.38;4.45;;;28.00;99.90;;;;;;5030547;28;20053;-81
2021/08/15 10:43:59;;;;;;;8.45;4.80;;;28.10;99.90;;;;;;5033883;28;20113;-80
2021/08/15 10:46:27;;;;;;;8.93;4.38;;;28.10;99.90;;;;;;5008942;28;20132;-80
2021/08/15 10:48:58;;;;;;;6.75;4.57;;;28.10;99.90;;;;;;4999099;28;20136;-80
2021/08/15 10:51:55;;;;;;;9.40;5.00;;;28.10;99.90;;;;;;5002688;28;20125;-80
2021/08/15 10:55:07;;;;;;;24.90;5.72;;;28.30;99.90;;;;;;4951244;29;20513;-80
2021/08/15 10:57:46;;;;;;;11.27;4.90;;;28.40;99.90;;;;;;5017366;28;20149;-79
2021/08/15 11:00:54;;;;;;;12.40;5.03;;;28.50;99.90;;;;;;5018150;28;20049;-79
2021/08/15 11:03:36;;;;;;;8.13;4.60;;;28.50;99.90;;;;;;5018823;28;20427;-80
2021/08/15 11:06:04;;;;;;;9.05;4.78;;;28.60;99.90;;;;;;5021895;28;20105;-80
2021/08/15 11:08:56;;;;;;;8.43;4.68;;;28.70;99.90;;;;;;5021966;28;20125;-81
2021/08/15 11:11:30;;;;;;;9.20;5.20;;;28.80;99.90;;;;;;5002571;28;20330;-82
2021/08/15 11:14:30;;;;;;;7.60;4.60;;;28.90;99.90;;;;;;5016475;28;20304;-81
2021/08/15 11:17:10;;;;;;;7.22;5.20;;;28.80;99.90;;;;;;5018012;28;20073;-82
2021/08/15 11:19:39;;;;;;;10.70;4.90;;;28.80;99.90;;;;;;5009098;28;20494;-81
2021/08/15 11:22:10;;;;;;;8.38;4.95;;;28.90;99.90;;;;;;5013435;28;20046;-81
2021/08/15 11:24:40;;;;;;;8.10;4.40;;;28.90;99.90;;;;;;5012173;28;20509;-83
2021/08/15 11:27:08;;;;;;;8.70;4.70;;;29.00;99.90;;;;;;5002848;28;20054;-83
2021/08/15 11:29:38;;;;;;;12.43;4.60;;;29.00;99.90;;;;;;5002510;28;20077;-83
2021/08/15 11:32:11;;;;;;;10.48;5.03;;;29.00;99.90;;;;;;5010757;28;20050;-82
2021/08/15 11:34:39;;;;;;;8.90;4.93;;;29.00;99.90;;;;;;5014299;28;20098;-83
2021/08/15 11:37:07;;;;;;;11.18;4.63;;;28.90;99.90;;;;;;5017738;28;20064;-83
2021/08/15 11:39:36;;;;;;;8.70;4.63;;;28.80;99.90;;;;;;5020679;28;20093;-82
2021/08/15 11:42:06;;;;;;;12.32;5.28;;;28.80;99.90;;;;;;5029601;28;20048;-82
2021/08/15 11:44:54;;;;;;;8.77;4.93;;;28.90;99.90;;;;;;5035423;28;20065;-81
2021/08/15 11:47:23;;;;;;;8.63;4.93;;;29.10;99.90;;;;;;5034334;28;20124;-82
2021/08/15 11:49:52;;;;;;;8.45;4.85;;;29.10;99.90;;;;;;5021109;28;20137;-80
2021/08/15 11:52:21;;;;;;;10.65;4.80;;;29.20;99.90;;;;;;5021793;28;20137;-80
2021/08/15 11:54:48;;;;;;;7.75;4.78;;;29.30;99.90;;;;;;5020405;28;20108;-80
2021/08/15 11:57:15;;;;;;;13.57;4.90;;;29.50;99.90;;;;;;5020941;28;20474;-80
2021/08/15 11:59:44;;;;;;;6.90;4.50;;;29.60;99.90;;;;;;5021587;28;20057;-80
2021/08/15 12:02:16;;;;;;;9.20;4.85;;;29.60;99.90;;;;;;5009434;28;20127;-79
2021/08/15 12:04:45;;;;;;;9.57;4.90;;;29.60;99.90;;;;;;5016207;28;20141;-78
2021/08/15 12:07:20;;;;;;;9.00;5.32;;;29.50;99.90;;;;;;5008756;28;20065;-82
2021/08/15 12:09:47;;;;;;;7.07;4.55;;;29.40;99.90;;;;;;5017094;28;20052;-83
2021/08/15 12:12:20;;;;;;;9.18;5.18;;;29.40;99.90;;;;;;5020659;28;20049;-82
2021/08/15 12:14:48;;;;;;;7.63;4.45;;;29.20;99.90;;;;;;5021451;28;20050;-82
2021/08/15 12:17:16;;;;;;;7.28;4.75;;;29.20;99.90;;;;;;5021453;28;20122;-82
2021/08/15 12:19:43;;;;;;;7.70;4.88;;;29.20;99.90;;;;;;5020539;28;20081;-82
2021/08/15 12:22:19;;;;;;;8.40;4.80;;;29.10;99.90;;;;;;5021423;28;20124;-83
2021/08/15 12:24:47;;;;;;;7.65;4.75;;;29.20;99.90;;;;;;5020571;28;20119;-82
2021/08/15 12:27:14;;;;;;;6.53;4.90;;;29.50;99.90;;;;;;5022196;28;20057;-83
2021/08/15 12:29:44;;;;;;;8.57;4.55;;;29.60;99.90;;;;;;5021374;28;20050;-83
2021/08/15 12:32:15;;;;;;;8.70;4.93;;;29.80;99.90;;;;;;5021678;28;20141;-83
2021/08/15 12:34:44;;;;;;;12.27;5.00;;;29.60;99.90;;;;;;5021663;28;20114;-82
2021/08/15 12:37:15;;;;;;;11.52;5.50;;;29.60;99.90;;;;;;5024807;28;20509;-82
2021/08/15 12:39:45;;;;;;;7.50;4.63;;;29.60;99.90;;;;;;5025280;28;20081;-81
2021/08/15 12:42:23;;;;;;;7.97;4.75;;;29.50;99.90;;;;;;5028923;28;20084;-81
2021/08/15 12:44:56;;;;;;;9.75;4.50;;;29.50;99.90;;;;;;5024297;28;20050;-81
2021/08/15 12:47:37;;;;;;;7.68;4.90;;;29.40;99.90;;;;;;5024122;28;20152;-82
2021/08/15 12:50:18;;;;;;;5.97;4.25;;;29.30;99.90;;;;;;5024144;28;20049;-82
2021/08/15 12:52:51;;;;;;;7.15;4.45;;;29.10;99.90;;;;;;5022379;28;20049;-82
2021/08/15 12:55:25;;;;;;;;;;;28.90;99.90;;;;;;5023926;28;20069;-80
2021/08/15 12:58:04;;;;;;;7.35;4.60;;;29.00;99.90;;;;;;5022726;28;19944;-82
2021/08/15 13:01:19;;;;;;;7.13;4.40;;;29.00;99.90;;;;;;5022715;28;20073;-82
2021/08/15 13:04:22;;;;;;;6.43;4.57;;;28.90;99.90;;;;;;5016580;28;20050;-82
2021/08/15 13:06:57;;;;;;;7.07;3.80;;;28.90;99.90;;;;;;5016693;28;20167;-83
2021/08/15 13:09:40;;;;;;;6.97;4.30;;;28.90;99.90;;;;;;5022335;28;20096;-82
2021/08/15 13:12:11;;;;;;;6.00;4.40;;;28.90;99.90;;;;;;5021968;28;20056;-82